createdAt,value
2023-05-04T00:00:48.721Z,10.24
2023-05-04T00:03:17.093Z,10.19
2023-05-04T00:05:45.619Z,10.24
2023-05-04T00:08:15.237Z,10.19
2023-05-04T00:10:43.514Z,10.16
2023-05-04T00:13:11.885Z,10.28
2023-05-04T00:15:40.146Z,10.22
2023-05-04T00:18:08.706Z,10.18
2023-05-04T00:20:37.016Z,10.26
2023-05-04T00:23:05.452Z,10.19
2023-05-04T00:25:35.141Z,10.17
2023-05-04T00:28:03.430Z,10.13
2023-05-04T00:30:31.689Z,10.18
2023-05-04T00:33:00.050Z,10.25
2023-05-04T00:35:29.919Z,10.18
2023-05-04T00:37:58.209Z,10.22
2023-05-04T00:40:26.494Z,10.13
2023-05-04T00:42:56.288Z,10.12
2023-05-04T00:45:24.510Z,10.15
2023-05-04T00:47:52.998Z,10.18
2023-05-04T00:50:21.440Z,10.18
2023-05-04T00:52:50.560Z,10.18
2023-05-04T00:55:22.329Z,10.17
2023-05-04T00:57:51.996Z,10.22
2023-05-04T01:00:22.578Z,10.27
2023-05-04T01:02:51.163Z,10.31
2023-05-04T01:05:19.510Z,10.34
2023-05-04T01:07:58.006Z,10.37
2023-05-04T01:10:31.713Z,10.32
2023-05-04T01:13:05.474Z,10.25
2023-05-04T01:15:36.182Z,10.26
2023-05-04T01:18:04.834Z,10.20
2023-05-04T01:20:33.598Z,10.22
2023-05-04T01:23:03.609Z,10.22
2023-05-04T01:25:35.838Z,10.21
2023-05-04T01:28:09.867Z,10.23
2023-05-04T01:30:42.103Z,10.24
2023-05-04T01:33:10.995Z,10.22
2023-05-04T01:35:39.562Z,10.22
2023-05-04T01:38:09.441Z,10.21
2023-05-04T01:40:37.818Z,10.29
2023-05-04T01:43:06.058Z,10.24
2023-05-04T01:45:34.357Z,10.23
2023-05-04T01:48:02.741Z,10.32
2023-05-04T01:50:32.370Z,10.34
2023-05-04T01:53:00.620Z,10.32
2023-05-04T01:55:31.282Z,10.38
2023-05-04T01:57:59.596Z,10.28
2023-05-04T02:00:28.333Z,10.28
2023-05-04T02:02:56.694Z,10.34
2023-05-04T02:05:24.985Z,10.39
2023-05-04T02:07:53.204Z,10.34
2023-05-04T02:10:21.664Z,10.26
2023-05-04T02:12:52.318Z,10.22
2023-05-04T02:15:20.682Z,10.32
2023-05-04T02:17:49.168Z,10.34
2023-05-04T02:20:17.697Z,10.34
2023-05-04T02:22:45.951Z,10.34
2023-05-04T02:25:14.176Z,10.27
2023-05-04T02:27:42.543Z,10.38
2023-05-04T02:30:13.906Z,10.37
2023-05-04T02:32:42.384Z,10.34
2023-05-04T02:35:11.108Z,10.35
2023-05-04T02:37:39.327Z,10.38
2023-05-04T02:40:09.174Z,10.35
2023-05-04T02:42:37.525Z,10.41
2023-05-04T02:45:07.610Z,10.32
2023-05-04T02:47:37.508Z,10.36
2023-05-04T02:50:06.964Z,10.36
2023-05-04T02:52:35.390Z,10.37
2023-05-04T02:55:04.105Z,10.46
2023-05-04T02:57:32.480Z,10.44
2023-05-04T03:00:00.782Z,10.42
2023-05-04T03:02:29.110Z,10.35
2023-05-04T03:04:58.839Z,10.33
2023-05-04T03:07:27.608Z,10.43
2023-05-04T03:09:55.887Z,10.42
2023-05-04T03:12:25.628Z,10.41
2023-05-04T03:14:53.914Z,10.41
2023-05-04T03:17:22.199Z,10.43
2023-05-04T03:19:50.612Z,10.44
2023-05-04T03:22:20.426Z,10.44
2023-05-04T03:24:48.788Z,10.44
2023-05-04T03:27:17.379Z,10.46
2023-05-04T03:29:45.662Z,10.48
2023-05-04T03:32:14.262Z,10.50
2023-05-04T03:34:42.530Z,10.52
2023-05-04T03:37:10.803Z,10.54
2023-05-04T03:39:40.601Z,10.57
2023-05-04T03:42:08.798Z,10.63
2023-05-04T03:44:37.267Z,10.55
2023-05-04T03:47:05.482Z,10.55
2023-05-04T03:49:33.803Z,10.58
2023-05-04T03:52:02.135Z,10.67
2023-05-04T03:54:30.457Z,10.71
2023-05-04T03:57:00.166Z,10.64
2023-05-04T03:59:28.479Z,10.58
2023-05-04T04:01:56.689Z,10.60
2023-05-04T04:04:25.032Z,10.69
2023-05-04T04:06:53.311Z,10.74
2023-05-04T04:09:21.582Z,10.87
2023-05-04T04:11:49.876Z,10.93
2023-05-04T04:14:19.635Z,10.84
2023-05-04T04:16:47.924Z,10.97
2023-05-04T04:19:16.236Z,10.95
2023-05-04T04:21:44.608Z,10.87
2023-05-04T04:24:12.940Z,10.85
2023-05-04T04:26:41.234Z,10.87
2023-05-04T04:29:10.002Z,10.86
2023-05-04T04:31:40.456Z,10.88
2023-05-04T04:34:08.781Z,10.91
2023-05-04T04:36:37.219Z,10.90
2023-05-04T04:39:06.195Z,10.89
2023-05-04T04:41:34.460Z,10.91
2023-05-04T04:44:02.717Z,10.89
2023-05-04T04:46:31.038Z,11.00
2023-05-04T04:49:00.708Z,11.06
2023-05-04T04:51:29.534Z,11.15
2023-05-04T04:53:57.765Z,11.35
2023-05-04T04:56:26.548Z,11.38
2023-05-04T04:58:55.024Z,11.33
2023-05-04T05:01:23.348Z,11.33
2023-05-04T05:03:51.587Z,11.25
2023-05-04T05:06:21.210Z,11.35
2023-05-04T05:08:49.594Z,11.51
2023-05-04T05:11:17.919Z,11.68
2023-05-04T05:13:46.406Z,11.72
2023-05-04T05:16:14.721Z,11.70
2023-05-04T05:18:43.434Z,11.84
2023-05-04T05:21:12.599Z,11.79
2023-05-04T05:23:42.256Z,11.65
2023-05-04T05:26:10.533Z,11.69
2023-05-04T05:28:39.236Z,11.56
2023-05-04T05:31:07.798Z,11.47
2023-05-04T05:33:36.100Z,11.24
2023-05-04T05:36:06.111Z,11.07
2023-05-04T05:38:34.500Z,11.04
2023-05-04T05:41:04.260Z,10.76
2023-05-04T05:43:33.535Z,10.63
2023-05-04T05:46:01.841Z,10.37
2023-05-04T05:48:30.226Z,10.26
2023-05-04T05:50:58.461Z,10.27
2023-05-04T05:53:26.878Z,10.25
2023-05-04T05:55:55.128Z,10.27
2023-05-04T05:58:25.950Z,10.33
2023-05-04T06:00:54.216Z,10.27
2023-05-04T06:03:22.760Z,10.17
2023-05-04T06:05:51.227Z,10.22
2023-05-04T06:08:19.707Z,10.20
2023-05-04T06:10:48.090Z,10.22
2023-05-04T06:13:16.454Z,10.11
2023-05-04T06:15:52.478Z,10.19
2023-05-04T06:18:21.562Z,10.29
2023-05-04T06:20:49.931Z,10.37
2023-05-04T06:23:18.196Z,10.27
2023-05-04T06:25:46.454Z,10.23
2023-05-04T06:28:15.088Z,10.44
2023-05-04T06:30:44.962Z,10.31
2023-05-04T06:33:14.668Z,10.28
2023-05-04T06:35:45.304Z,10.25
2023-05-04T06:38:13.730Z,10.24
2023-05-04T06:40:42.082Z,10.28
2023-05-04T06:43:10.438Z,10.18
2023-05-04T06:45:39.470Z,10.26
2023-05-04T06:48:09.588Z,10.25
2023-05-04T06:50:41.239Z,10.32
2023-05-04T06:53:11.838Z,10.35
2023-05-04T06:55:40.422Z,10.39
2023-05-04T06:58:08.898Z,10.48
2023-05-04T07:00:37.987Z,10.31
2023-05-04T07:03:06.370Z,10.29
2023-05-04T07:05:36.931Z,10.39
2023-05-04T07:08:06.985Z,10.50
2023-05-04T07:10:35.632Z,10.49
2023-05-04T07:13:04.134Z,10.49
2023-05-04T07:15:33.893Z,10.70
2023-05-04T07:18:02.582Z,10.66
2023-05-04T07:20:30.842Z,10.64
2023-05-04T07:22:59.180Z,10.92
2023-05-04T07:25:29.842Z,11.02
2023-05-04T07:27:58.493Z,11.05
2023-05-04T07:30:26.992Z,11.09
2023-05-04T07:32:55.870Z,11.36
2023-05-04T07:35:24.484Z,11.50
2023-05-04T07:37:52.813Z,11.63
2023-05-04T07:40:21.644Z,12.15
2023-05-04T07:42:51.318Z,12.55
2023-05-04T07:45:19.687Z,12.80
2023-05-04T07:47:47.971Z,13.01
2023-05-04T07:50:16.665Z,13.09
2023-05-04T07:52:47.945Z,13.16
2023-05-04T07:55:16.341Z,13.10
2023-05-04T07:57:44.548Z,13.16
2023-05-04T08:00:16.284Z,13.69
2023-05-04T08:02:44.862Z,13.26
2023-05-04T08:05:13.207Z,13.46
2023-05-04T08:07:41.620Z,13.37
2023-05-04T08:10:11.036Z,13.20
2023-05-04T08:12:41.848Z,13.19
2023-05-04T08:15:11.503Z,13.09
2023-05-04T08:17:41.449Z,13.27
2023-05-04T08:20:10.922Z,13.50
2023-05-04T08:22:39.993Z,13.82
2023-05-04T08:25:09.621Z,13.75
2023-05-04T08:27:37.886Z,13.40
2023-05-04T08:30:07.540Z,13.57
2023-05-04T08:32:36.060Z,13.61
2023-05-04T08:35:06.676Z,13.25
2023-05-04T08:37:35.367Z,13.21
2023-05-04T08:40:04.862Z,13.23
2023-05-04T08:42:36.858Z,13.46
2023-05-04T08:45:05.801Z,13.36
2023-05-04T08:47:34.451Z,13.63
2023-05-04T08:50:02.787Z,13.88
2023-05-04T08:52:33.419Z,13.87
2023-05-04T08:55:02.249Z,13.87
2023-05-04T08:57:31.257Z,13.89
2023-05-04T09:00:01.475Z,13.94
2023-05-04T09:02:31.402Z,14.17
2023-05-04T09:04:59.973Z,13.99
2023-05-04T09:07:28.567Z,14.16
2023-05-04T09:09:59.364Z,14.19
2023-05-04T09:12:28.379Z,14.38
2023-05-04T09:14:56.742Z,14.53
2023-05-04T09:17:27.863Z,14.91
2023-05-04T09:19:59.739Z,14.40
2023-05-04T09:22:28.962Z,14.43
2023-05-04T09:25:09.719Z,14.64
2023-05-04T09:27:38.204Z,14.68
2023-05-04T09:30:07.735Z,14.52
2023-05-04T09:32:38.696Z,14.74
2023-05-04T09:35:10.796Z,14.46
2023-05-04T09:37:45.327Z,14.68
2023-05-04T09:40:16.023Z,14.48
2023-05-04T09:42:44.361Z,14.77
2023-05-04T09:45:13.844Z,14.77
2023-05-04T09:47:42.952Z,14.61
2023-05-04T09:50:20.078Z,14.66
2023-05-04T09:52:50.055Z,14.85
2023-05-04T09:55:21.062Z,14.97
2023-05-04T09:57:51.071Z,15.01
2023-05-04T10:00:20.589Z,14.82
2023-05-04T10:02:49.468Z,14.59
2023-05-04T10:05:21.313Z,14.82
2023-05-04T10:07:49.898Z,14.98
2023-05-04T10:10:19.619Z,15.04
2023-05-04T10:12:48.134Z,15.18
2023-05-04T10:15:17.425Z,15.22
2023-05-04T10:18:01.666Z,15.58
2023-05-04T10:21:03.831Z,14.78
2023-05-04T10:24:00.591Z,14.25
2023-05-04T10:26:47.777Z,14.41
2023-05-04T10:29:24.007Z,14.62
2023-05-04T10:31:53.576Z,14.55
2023-05-04T10:34:27.101Z,13.74
2023-05-04T10:36:55.472Z,13.98
2023-05-04T10:39:25.162Z,14.53
2023-05-04T10:42:02.203Z,15.17
2023-05-04T10:44:31.656Z,15.16
2023-05-04T10:47:05.602Z,15.53
2023-05-04T10:49:35.102Z,15.41
2023-05-04T10:52:08.050Z,14.95
2023-05-04T10:54:37.341Z,15.19
2023-05-04T10:57:09.334Z,14.80
2023-05-04T10:59:39.074Z,14.43
2023-05-04T11:02:08.140Z,14.77
2023-05-04T11:04:37.562Z,14.90
2023-05-04T11:07:08.522Z,15.45
2023-05-04T11:09:39.104Z,15.59
2023-05-04T11:12:10.946Z,15.30
2023-05-04T11:14:43.329Z,15.54
2023-05-04T11:19:51.832Z,15.46
2023-05-04T11:22:21.235Z,15.85
2023-05-04T11:24:49.805Z,16.03
2023-05-04T11:27:34.255Z,15.72
2023-05-04T11:30:04.371Z,16.18
2023-05-04T11:32:36.893Z,16.28
2023-05-04T11:35:06.590Z,16.17
2023-05-04T11:37:41.237Z,15.91
2023-05-04T11:40:14.460Z,15.38
2023-05-04T11:42:44.897Z,15.12
2023-05-04T11:45:17.968Z,15.40
2023-05-04T11:47:47.073Z,15.28
2023-05-04T11:50:17.383Z,14.63
2023-05-04T11:52:46.142Z,14.19
2023-05-04T11:55:26.873Z,14.38
2023-05-04T11:58:00.205Z,14.81
2023-05-04T12:00:40.322Z,15.20
2023-05-04T12:03:09.915Z,15.05
2023-05-04T12:05:38.751Z,15.14
2023-05-04T12:08:08.882Z,15.41
2023-05-04T12:10:37.366Z,15.13
2023-05-04T12:13:16.897Z,15.19
2023-05-04T12:15:45.412Z,15.34
2023-05-04T12:18:22.879Z,15.15
2023-05-04T12:20:51.201Z,14.52
2023-05-04T12:23:19.434Z,14.59
2023-05-04T12:25:57.372Z,14.97
2023-05-04T12:28:30.819Z,14.47
2023-05-04T12:30:59.788Z,13.70
2023-05-04T12:33:28.367Z,14.09
2023-05-04T12:35:56.943Z,13.76
2023-05-04T12:38:25.636Z,13.78
2023-05-04T12:40:53.943Z,14.38
2023-05-04T12:43:23.281Z,13.77
2023-05-04T12:45:53.967Z,13.30
2023-05-04T12:48:22.517Z,13.76
2023-05-04T12:50:52.305Z,13.38
2023-05-04T12:53:22.411Z,13.69
2023-05-04T12:55:50.709Z,13.69
2023-05-04T12:58:19.048Z,13.74
2023-05-04T13:00:47.416Z,13.15
2023-05-04T13:03:18.149Z,13.15
2023-05-04T13:05:49.760Z,13.44
2023-05-04T13:08:19.902Z,13.47
2023-05-04T13:10:48.356Z,13.23
2023-05-04T13:13:18.060Z,13.80
2023-05-04T13:15:47.863Z,13.66
2023-05-04T13:18:17.635Z,13.49
2023-05-04T13:20:45.952Z,13.37
2023-05-04T13:23:14.319Z,13.23
2023-05-04T13:25:42.564Z,13.24
2023-05-04T13:28:10.891Z,13.54
2023-05-04T13:30:39.159Z,13.55
2023-05-04T13:33:16.853Z,12.99
2023-05-04T13:35:50.957Z,12.98
2023-05-04T13:38:19.218Z,12.97
2023-05-04T13:40:47.671Z,12.73
2023-05-04T13:43:16.000Z,13.03
2023-05-04T13:45:44.286Z,12.76
2023-05-04T13:48:12.679Z,12.83
2023-05-04T13:50:41.117Z,12.63
2023-05-04T13:53:11.363Z,12.88
2023-05-04T13:55:39.778Z,12.58
2023-05-04T13:58:07.999Z,12.70
2023-05-04T14:00:36.332Z,12.72
2023-05-04T14:03:05.105Z,12.54
2023-05-04T14:05:35.505Z,12.43
2023-05-04T14:08:04.162Z,12.45
2023-05-04T14:10:34.958Z,12.23
2023-05-04T14:13:05.038Z,12.17
2023-05-04T14:15:33.474Z,12.19
2023-05-04T14:18:01.967Z,12.15
2023-05-04T14:20:30.233Z,12.17
2023-05-04T14:22:58.530Z,12.05
2023-05-04T14:25:26.898Z,12.11
2023-05-04T14:27:56.656Z,12.46
2023-05-04T14:30:26.618Z,12.61
2023-05-04T14:32:55.672Z,12.28
2023-05-04T14:35:24.138Z,12.40
2023-05-04T14:37:53.349Z,12.49
2023-05-04T14:40:21.726Z,12.73
2023-05-04T14:42:49.950Z,12.85
2023-05-04T14:45:20.393Z,12.71
2023-05-04T14:47:48.976Z,12.66
2023-05-04T14:50:17.371Z,12.78
2023-05-04T14:52:45.652Z,12.46
2023-05-04T14:55:14.422Z,12.36
2023-05-04T14:57:42.967Z,12.19
2023-05-04T15:00:12.414Z,12.20
2023-05-04T15:02:42.290Z,12.29
2023-05-04T15:05:12.696Z,12.38
2023-05-04T15:07:41.101Z,12.60
2023-05-04T15:10:11.040Z,12.62
2023-05-04T15:12:39.740Z,12.16
2023-05-04T15:15:08.982Z,12.12
2023-05-04T15:17:37.406Z,12.09
2023-05-04T15:20:09.919Z,12.17
2023-05-04T15:22:38.515Z,12.08
2023-05-04T15:25:07.364Z,11.87
2023-05-04T15:27:35.870Z,12.12
2023-05-04T15:30:04.939Z,12.21
2023-05-04T15:32:33.377Z,12.03
2023-05-04T15:35:05.973Z,12.18
2023-05-04T15:37:36.454Z,11.99
2023-05-04T15:40:05.584Z,12.07
2023-05-04T15:42:34.310Z,12.27
2023-05-04T15:45:02.591Z,12.04
2023-05-04T15:47:32.078Z,11.95
2023-05-04T15:50:00.634Z,11.94
2023-05-04T15:52:29.048Z,12.00
2023-05-04T15:55:09.146Z,11.94
2023-05-04T15:57:45.102Z,11.89
2023-05-04T16:00:14.826Z,11.71
2023-05-04T16:02:43.128Z,11.79
2023-05-04T16:05:11.744Z,11.70
2023-05-04T16:07:40.043Z,11.80
2023-05-04T16:10:11.431Z,11.55
2023-05-04T16:12:40.032Z,11.52
2023-05-04T16:15:09.137Z,11.47
2023-05-04T16:17:37.667Z,11.47
2023-05-04T16:20:07.910Z,11.38
2023-05-04T16:22:36.340Z,11.37
2023-05-04T16:25:05.113Z,11.40
2023-05-04T16:27:34.813Z,11.42
2023-05-04T16:30:03.104Z,11.40
2023-05-04T16:32:31.401Z,11.39
2023-05-04T16:34:59.734Z,11.40
2023-05-04T16:37:28.259Z,11.23
2023-05-04T16:39:56.691Z,11.12
2023-05-04T16:42:24.960Z,11.18
2023-05-04T16:44:54.943Z,11.20
2023-05-04T16:47:23.252Z,11.16
2023-05-04T16:49:51.549Z,11.10
2023-05-04T16:52:20.112Z,11.08
2023-05-04T16:54:48.418Z,11.06
2023-05-04T16:57:16.765Z,11.08
2023-05-04T16:59:45.282Z,11.05
2023-05-04T17:02:15.227Z,11.05
2023-05-04T17:04:43.664Z,11.08
2023-05-04T17:07:12.185Z,11.09
2023-05-04T17:09:41.272Z,11.07
2023-05-04T17:12:09.603Z,11.08
2023-05-04T17:14:37.925Z,11.11
2023-05-04T17:17:06.798Z,11.14
2023-05-04T17:19:36.552Z,11.12
2023-05-04T17:22:04.812Z,11.02
2023-05-04T17:24:33.034Z,10.98
2023-05-04T17:27:01.547Z,10.92
2023-05-04T17:29:29.857Z,10.91
2023-05-04T17:31:58.162Z,10.91
2023-05-04T17:34:26.783Z,10.89
2023-05-04T17:36:56.567Z,10.85
2023-05-04T17:39:24.922Z,10.82
2023-05-04T17:41:53.203Z,10.79
2023-05-04T17:44:24.738Z,10.75
2023-05-04T17:46:53.017Z,10.74
2023-05-04T17:49:21.542Z,10.79
2023-05-04T17:51:50.124Z,10.84
2023-05-04T17:54:19.885Z,10.83
2023-05-04T17:56:48.228Z,10.67
2023-05-04T17:59:17.836Z,10.60
2023-05-04T18:01:47.188Z,10.56
2023-05-04T18:04:15.807Z,10.57
2023-05-04T18:06:45.362Z,10.54
2023-05-04T18:09:13.905Z,10.50
2023-05-04T18:11:43.631Z,10.45
2023-05-04T18:14:12.005Z,10.37
2023-05-04T18:16:40.260Z,10.35
2023-05-04T18:19:08.829Z,10.37
2023-05-04T18:21:37.846Z,10.36
2023-05-04T18:24:06.987Z,10.26
2023-05-04T18:26:35.332Z,10.27
2023-05-04T18:29:17.744Z,10.26
2023-05-04T18:31:47.429Z,10.31
2023-05-04T18:34:15.858Z,10.24
2023-05-04T18:36:44.320Z,10.23
2023-05-04T18:39:13.637Z,10.17
2023-05-04T18:41:41.937Z,10.18
2023-05-04T18:44:11.676Z,10.17
2023-05-04T18:46:40.440Z,10.16
2023-05-04T18:49:08.821Z,10.14
2023-05-04T18:51:37.108Z,10.19
2023-05-04T18:54:05.600Z,10.11
2023-05-04T18:56:34.304Z,10.17
2023-05-04T18:59:02.760Z,10.09
2023-05-04T19:01:32.962Z,10.07
2023-05-04T19:04:01.423Z,10.08
2023-05-04T19:06:29.857Z,10.06
2023-05-04T19:08:58.577Z,10.03
2023-05-04T19:11:26.901Z,10.12
2023-05-04T19:13:55.628Z,10.10
2023-05-04T19:16:24.077Z,10.13
2023-05-04T19:18:53.837Z,10.17
2023-05-04T19:21:22.884Z,10.15
2023-05-04T19:23:51.314Z,10.05
2023-05-04T19:26:19.652Z,9.98
2023-05-04T19:28:47.870Z,9.90
2023-05-04T19:31:16.794Z,9.86
2023-05-04T19:33:48.896Z,9.79
2023-05-04T19:36:18.741Z,9.71
2023-05-04T19:38:49.180Z,9.76
2023-05-04T19:41:17.993Z,9.82
2023-05-04T19:43:46.396Z,9.84
2023-05-04T19:46:14.867Z,9.87
2023-05-04T19:48:43.756Z,9.83
2023-05-04T19:51:12.128Z,9.80
2023-05-04T19:53:41.922Z,9.86
2023-05-04T19:56:10.227Z,9.87
2023-05-04T19:58:38.751Z,9.91
2023-05-04T20:01:07.255Z,9.93
2023-05-04T20:03:35.584Z,9.87
2023-05-04T20:06:04.364Z,9.76
2023-05-04T20:08:32.768Z,9.84
2023-05-04T20:11:02.530Z,9.81
2023-05-04T20:13:30.852Z,9.79
2023-05-04T20:15:59.154Z,9.81
2023-05-04T20:18:28.771Z,9.66
2023-05-04T20:20:57.540Z,9.66
2023-05-04T20:23:25.893Z,9.62
2023-05-04T20:25:56.559Z,9.60
2023-05-04T20:28:26.265Z,9.61
2023-05-04T20:30:54.752Z,9.58
2023-05-04T20:33:23.195Z,9.50
2023-05-04T20:35:51.473Z,9.42
2023-05-04T20:38:19.752Z,9.35
2023-05-04T20:40:48.668Z,9.41
2023-05-04T20:43:18.150Z,9.38
2023-05-04T20:45:48.227Z,9.29
2023-05-04T20:48:16.654Z,9.26
2023-05-04T20:50:45.112Z,9.25
2023-05-04T20:53:13.410Z,9.19
2023-05-04T20:55:44.596Z,9.15
2023-05-04T20:58:14.363Z,9.12
2023-05-04T21:00:42.749Z,9.15
2023-05-04T21:03:12.468Z,9.18
2023-05-04T21:05:41.137Z,9.11
2023-05-04T21:08:09.391Z,9.15
2023-05-04T21:10:38.089Z,9.12
2023-05-04T21:13:06.371Z,9.14
2023-05-04T21:15:34.724Z,9.08
2023-05-04T21:18:03.055Z,9.07
2023-05-04T21:20:33.055Z,9.10
2023-05-04T21:23:01.321Z,9.03
2023-05-04T21:25:29.648Z,9.02
2023-05-04T21:27:58.768Z,8.92
2023-05-04T21:30:27.411Z,8.90
2023-05-04T21:32:55.823Z,8.80
2023-05-04T21:35:24.676Z,8.77
2023-05-04T21:37:54.463Z,8.81
2023-05-04T21:40:23.155Z,8.81
2023-05-04T21:42:51.391Z,8.80
2023-05-04T21:45:19.710Z,8.87
2023-05-04T21:47:48.669Z,8.83
2023-05-04T21:50:17.420Z,8.80
2023-05-04T21:52:45.706Z,8.73
2023-05-04T21:55:17.495Z,8.81
2023-05-04T21:57:45.950Z,8.82
2023-05-04T22:00:18.200Z,8.78
2023-05-04T22:02:46.769Z,8.89
2023-05-04T22:05:15.197Z,8.86
2023-05-04T22:07:43.732Z,8.87
2023-05-04T22:10:12.449Z,8.90
2023-05-04T22:12:42.169Z,8.85
2023-05-04T22:15:12.132Z,8.86
2023-05-04T22:17:40.551Z,8.84
2023-05-04T22:20:10.455Z,8.84
2023-05-04T22:22:38.780Z,8.80
2023-05-04T22:25:07.886Z,8.81
2023-05-04T22:27:36.116Z,8.78
2023-05-04T22:30:06.843Z,8.86
2023-05-04T22:32:35.324Z,8.85
2023-05-04T22:35:03.655Z,8.81
2023-05-04T22:37:32.011Z,8.78
2023-05-04T22:40:01.134Z,8.79
2023-05-04T22:42:29.525Z,8.87
2023-05-04T22:44:57.966Z,8.95
2023-05-04T22:47:27.668Z,8.98
2023-05-04T22:49:56.310Z,9.05
2023-05-04T22:52:25.395Z,9.22
2023-05-04T22:54:53.683Z,9.29
2023-05-04T22:57:22.349Z,9.34
2023-05-04T22:59:50.779Z,9.25
2023-05-04T23:02:19.149Z,9.16
2023-05-04T23:04:48.858Z,9.08
2023-05-04T23:07:17.154Z,9.02
2023-05-04T23:09:46.437Z,9.04
2023-05-04T23:12:15.314Z,9.08
2023-05-04T23:14:43.586Z,9.13
2023-05-04T23:17:11.875Z,9.16
2023-05-04T23:19:40.136Z,9.03
2023-05-04T23:22:09.930Z,8.95
2023-05-04T23:24:38.406Z,8.95
2023-05-04T23:27:07.031Z,8.81
2023-05-04T23:29:35.632Z,8.76
2023-05-04T23:32:04.392Z,8.67
2023-05-04T23:34:32.772Z,8.63
2023-05-04T23:37:01.192Z,8.58
2023-05-04T23:39:30.922Z,8.58
2023-05-04T23:41:59.161Z,8.63
2023-05-04T23:44:27.650Z,8.52
2023-05-04T23:46:55.937Z,8.42
2023-05-04T23:49:24.199Z,8.40
2023-05-04T23:51:52.975Z,8.38
2023-05-04T23:54:21.475Z,8.38
2023-05-04T23:56:51.159Z,8.50
2023-05-04T23:59:19.453Z,8.47
